sensor_id;sensor_type;location;lat;lon;timestamp;pressure;altitude;pressure_sealevel;temperature;humidity
31183;BME280;17813;0.000;0.000;2022-09-20T00:01:15;99599.28;;;11.58;76.67
31183;BME280;17813;0.000;0.000;2022-09-20T00:03:45;99602.03;;;11.56;77.00
31183;BME280;17813;0.000;0.000;2022-09-20T00:06:17;99606.69;;;11.53;77.13
31183;BME280;17813;0.000;0.000;2022-09-20T00:08:45;99602.41;;;11.50;77.38
31183;BME280;17813;0.000;0.000;2022-09-20T00:11:18;99604.22;;;11.50;77.37
31183;BME280;17813;0.000;0.000;2022-09-20T00:13:47;99602.63;;;11.47;77.61
31183;BME280;17813;0.000;0.000;2022-09-20T00:16:20;99609.94;;;11.44;77.10
31183;BME280;17813;0.000;0.000;2022-09-20T00:18:49;99607.38;;;11.42;77.32
31183;BME280;17813;0.000;0.000;2022-09-20T00:21:21;99611.81;;;11.42;77.03
31183;BME280;17813;0.000;0.000;2022-09-20T00:23:48;99607.28;;;11.44;77.19
31183;BME280;17813;0.000;0.000;2022-09-20T00:26:15;99609.94;;;11.44;77.31
31183;BME280;17813;0.000;0.000;2022-09-20T00:28:43;99604.81;;;11.41;77.06
31183;BME280;17813;0.000;0.000;2022-09-20T00:31:13;99615.72;;;11.36;77.19
31183;BME280;17813;0.000;0.000;2022-09-20T00:33:40;99617.06;;;11.29;77.78
31183;BME280;17813;0.000;0.000;2022-09-20T00:36:25;99619.03;;;11.25;77.50
31183;BME280;17813;0.000;0.000;2022-09-20T00:38:59;99616.47;;;11.24;76.99
31183;BME280;17813;0.000;0.000;2022-09-20T00:41:27;99619.91;;;11.26;76.82
31183;BME280;17813;0.000;0.000;2022-09-20T00:43:55;99610.97;;;11.27;76.66
31183;BME280;17813;0.000;0.000;2022-09-20T00:46:37;99608.72;;;11.21;76.79
31183;BME280;17813;0.000;0.000;2022-09-20T00:49:21;99609.09;;;11.15;77.23
31183;BME280;17813;0.000;0.000;2022-09-20T00:51:54;99615.16;;;11.17;76.81
31183;BME280;17813;0.000;0.000;2022-09-20T00:54:24;99613.34;;;11.17;77.34
31183;BME280;17813;0.000;0.000;2022-09-20T00:56:52;99615.91;;;11.19;76.98
31183;BME280;17813;0.000;0.000;2022-09-20T00:59:31;99616.88;;;11.18;76.59
31183;BME280;17813;0.000;0.000;2022-09-20T01:02:21;99618.38;;;11.08;76.96
31183;BME280;17813;0.000;0.000;2022-09-20T01:04:50;99616.38;;;11.11;77.39
31183;BME280;17813;0.000;0.000;2022-09-20T01:07:18;99616.09;;;11.16;76.90
31183;BME280;17813;0.000;0.000;2022-09-20T01:09:48;99625.31;;;11.10;76.64
31183;BME280;17813;0.000;0.000;2022-09-20T01:12:22;99614.88;;;11.07;76.86
31183;BME280;17813;0.000;0.000;2022-09-20T01:14:52;99619.44;;;11.05;77.16
31183;BME280;17813;0.000;0.000;2022-09-20T01:17:23;99621.31;;;11.03;76.80
31183;BME280;17813;0.000;0.000;2022-09-20T01:20:10;99622.63;;;10.96;76.88
31183;BME280;17813;0.000;0.000;2022-09-20T01:27:48;99621.50;;;11.00;77.17
31183;BME280;17813;0.000;0.000;2022-09-20T01:30:19;99616.00;;;11.03;77.00
31183;BME280;17813;0.000;0.000;2022-09-20T01:33:06;99624.91;;;11.02;76.60
31183;BME280;17813;0.000;0.000;2022-09-20T01:35:35;99623.13;;;11.03;77.03
31183;BME280;17813;0.000;0.000;2022-09-20T01:38:18;99617.63;;;11.06;76.84
31183;BME280;17813;0.000;0.000;2022-09-20T01:43:54;99620.75;;;10.98;77.11
31183;BME280;17813;0.000;0.000;2022-09-20T01:49:00;99616.88;;;11.04;76.88
31183;BME280;17813;0.000;0.000;2022-09-20T02:00:16;99617.16;;;10.99;76.78
31183;BME280;17813;0.000;0.000;2022-09-20T02:08:52;99625.16;;;10.69;77.17
31183;BME280;17813;0.000;0.000;2022-09-20T02:14:41;99627.22;;;10.64;77.76
31183;BME280;17813;0.000;0.000;2022-09-20T02:17:30;99620.50;;;10.58;77.12
31183;BME280;17813;0.000;0.000;2022-09-20T02:26:17;99629.94;;;10.32;78.06
31183;BME280;17813;0.000;0.000;2022-09-20T02:29:20;99624.06;;;10.27;78.29
31183;BME280;17813;0.000;0.000;2022-09-20T02:31:59;99620.66;;;10.25;78.21
31183;BME280;17813;0.000;0.000;2022-09-20T02:40:22;99629.72;;;10.06;78.32
31183;BME280;17813;0.000;0.000;2022-09-20T02:43:02;99631.78;;;10.00;79.42
31183;BME280;17813;0.000;0.000;2022-09-20T02:45:41;99636.47;;;9.95;79.09
31183;BME280;17813;0.000;0.000;2022-09-20T02:48:10;99641.88;;;9.94;79.02
31183;BME280;17813;0.000;0.000;2022-09-20T02:50:46;99635.13;;;9.88;78.88
31183;BME280;17813;0.000;0.000;2022-09-20T02:53:43;99637.25;;;9.82;79.41
31183;BME280;17813;0.000;0.000;2022-09-20T02:56:37;99628.97;;;9.72;79.37
31183;BME280;17813;0.000;0.000;2022-09-20T02:59:30;99637.94;;;9.70;79.84
31183;BME280;17813;0.000;0.000;2022-09-20T03:02:35;99628.63;;;9.62;79.81
31183;BME280;17813;0.000;0.000;2022-09-20T03:05:18;99640.16;;;9.61;80.43
31183;BME280;17813;0.000;0.000;2022-09-20T03:08:27;99638.44;;;9.60;80.76
31183;BME280;17813;0.000;0.000;2022-09-20T03:11:12;99638.38;;;9.62;80.25
31183;BME280;17813;0.000;0.000;2022-09-20T03:28:23;99646.91;;;9.51;80.02
31183;BME280;17813;0.000;0.000;2022-09-20T03:34:13;99642.97;;;9.58;80.22
31183;BME280;17813;0.000;0.000;2022-09-20T03:37:07;99640.16;;;9.61;79.95
31183;BME280;17813;0.000;0.000;2022-09-20T03:40:02;99648.28;;;9.58;80.07
31183;BME280;17813;0.000;0.000;2022-09-20T03:42:38;99638.44;;;9.60;79.63
31183;BME280;17813;0.000;0.000;2022-09-20T03:53:12;99651.53;;;9.63;80.45
31183;BME280;17813;0.000;0.000;2022-09-20T04:09:50;99651.59;;;9.78;80.43
31183;BME280;17813;0.000;0.000;2022-09-20T04:12:25;99651.94;;;9.87;80.45
31183;BME280;17813;0.000;0.000;2022-09-20T04:15:14;99659.56;;;9.93;80.20
31183;BME280;17813;0.000;0.000;2022-09-20T04:20:41;99661.84;;;9.99;80.51
31183;BME280;17813;0.000;0.000;2022-09-20T04:25:50;99665.97;;;10.05;80.61
31183;BME280;17813;0.000;0.000;2022-09-20T04:33:56;99674.41;;;10.12;80.13
31183;BME280;17813;0.000;0.000;2022-09-20T04:36:45;99675.00;;;10.17;80.48
31183;BME280;17813;0.000;0.000;2022-09-20T04:39:30;99677.34;;;10.23;80.56
31183;BME280;17813;0.000;0.000;2022-09-20T04:42:33;99680.75;;;10.25;80.62
31183;BME280;17813;0.000;0.000;2022-09-20T04:45:31;99671.78;;;10.27;80.61
31183;BME280;17813;0.000;0.000;2022-09-20T05:02:47;99678.69;;;10.46;80.35
31183;BME280;17813;0.000;0.000;2022-09-20T05:22:52;99691.00;;;10.15;80.21
31183;BME280;17813;0.000;0.000;2022-09-20T05:28:33;99688.00;;;10.06;81.03
31183;BME280;17813;0.000;0.000;2022-09-20T05:31:20;99688.00;;;10.06;81.28
31183;BME280;17813;0.000;0.000;2022-09-20T05:42:12;99698.78;;;10.50;80.74
31183;BME280;17813;0.000;0.000;2022-09-20T05:45:05;99704.41;;;10.59;80.36
31183;BME280;17813;0.000;0.000;2022-09-20T05:48:12;99709.28;;;10.67;80.22
31183;BME280;17813;0.000;0.000;2022-09-20T05:50:59;99710.53;;;10.76;79.83
31183;BME280;17813;0.000;0.000;2022-09-20T06:07:41;99715.44;;;11.12;79.20
31183;BME280;17813;0.000;0.000;2022-09-20T06:10:44;99721.06;;;11.21;79.35
31183;BME280;17813;0.000;0.000;2022-09-20T06:16:00;99719.47;;;11.47;79.18
31183;BME280;17813;0.000;0.000;2022-09-20T06:18:54;99720.41;;;11.60;78.74
31183;BME280;17813;0.000;0.000;2022-09-20T06:24:00;99715.22;;;11.87;78.40
31183;BME280;17813;0.000;0.000;2022-09-20T06:26:34;99719.56;;;12.03;78.32
31183;BME280;17813;0.000;0.000;2022-09-20T06:29:05;99718.22;;;12.10;77.88
31183;BME280;17813;0.000;0.000;2022-09-20T06:31:36;99722.19;;;12.17;77.80
31183;BME280;17813;0.000;0.000;2022-09-20T06:34:08;99716.97;;;12.15;77.62
31183;BME280;17813;0.000;0.000;2022-09-20T06:36:38;99716.09;;;12.15;77.41
31183;BME280;17813;0.000;0.000;2022-09-20T06:39:30;99726.00;;;12.13;77.33
31183;BME280;17813;0.000;0.000;2022-09-20T06:42:19;99719.63;;;12.15;77.61
31183;BME280;17813;0.000;0.000;2022-09-20T06:44:46;99723.16;;;12.82;78.32
31183;BME280;17813;0.000;0.000;2022-09-20T06:47:13;99716.59;;;14.15;74.30
31183;BME280;17813;0.000;0.000;2022-09-20T06:49:41;99719.97;;;15.59;69.74
31183;BME280;17813;0.000;0.000;2022-09-20T06:52:16;99711.53;;;17.06;65.53
31183;BME280;17813;0.000;0.000;2022-09-20T06:54:48;99720.19;;;18.61;61.26
31183;BME280;17813;0.000;0.000;2022-09-20T06:57:23;99712.19;;;20.21;57.51
31183;BME280;17813;0.000;0.000;2022-09-20T06:59:54;99713.00;;;21.30;53.57
31183;BME280;17813;0.000;0.000;2022-09-20T07:02:20;99712.28;;;22.05;51.89
31183;BME280;17813;0.000;0.000;2022-09-20T07:04:47;99713.28;;;22.04;49.59
31183;BME280;17813;0.000;0.000;2022-09-20T07:07:17;99711.78;;;21.76;49.27
31183;BME280;17813;0.000;0.000;2022-09-20T07:09:45;99724.84;;;21.19;51.75
31183;BME280;17813;0.000;0.000;2022-09-20T07:12:11;99722.41;;;21.08;52.66
31183;BME280;17813;0.000;0.000;2022-09-20T07:14:39;99724.22;;;20.72;52.68
31183;BME280;17813;0.000;0.000;2022-09-20T07:17:05;99732.72;;;19.95;52.81
31183;BME280;17813;0.000;0.000;2022-09-20T07:19:33;99730.38;;;19.06;53.35
31183;BME280;17813;0.000;0.000;2022-09-20T07:22:00;99748.75;;;18.22;53.79
31183;BME280;17813;0.000;0.000;2022-09-20T07:24:27;99750.03;;;17.25;56.14
31183;BME280;17813;0.000;0.000;2022-09-20T07:27:02;99754.13;;;16.22;57.66
31183;BME280;17813;0.000;0.000;2022-09-20T07:29:30;99756.72;;;15.79;59.45
31183;BME280;17813;0.000;0.000;2022-09-20T07:31:57;99758.41;;;15.34;60.90
31183;BME280;17813;0.000;0.000;2022-09-20T07:34:25;99761.00;;;15.11;61.47
31183;BME280;17813;0.000;0.000;2022-09-20T07:36:53;99771.38;;;14.92;61.59
31183;BME280;17813;0.000;0.000;2022-09-20T07:39:20;99764.13;;;14.70;62.32
31183;BME280;17813;0.000;0.000;2022-09-20T07:41:47;99777.41;;;14.59;62.73
31183;BME280;17813;0.000;0.000;2022-09-20T07:44:17;99781.22;;;14.68;62.92
31183;BME280;17813;0.000;0.000;2022-09-20T07:46:52;99776.56;;;14.83;63.63
31183;BME280;17813;0.000;0.000;2022-09-20T07:49:20;99773.66;;;15.21;61.85
31183;BME280;17813;0.000;0.000;2022-09-20T07:51:48;99768.59;;;15.29;61.20
31183;BME280;17813;0.000;0.000;2022-09-20T07:54:16;99773.47;;;15.35;61.78
31183;BME280;17813;0.000;0.000;2022-09-20T07:56:44;99775.38;;;15.22;61.62
31183;BME280;17813;0.000;0.000;2022-09-20T07:59:12;99776.66;;;15.05;62.23
31183;BME280;17813;0.000;0.000;2022-09-20T08:01:40;99779.72;;;14.88;62.00
31183;BME280;17813;0.000;0.000;2022-09-20T08:04:08;99780.94;;;14.84;62.17
31183;BME280;17813;0.000;0.000;2022-09-20T08:06:42;99789.97;;;14.94;62.31
31183;BME280;17813;0.000;0.000;2022-09-20T08:09:10;99783.19;;;15.36;61.88
31183;BME280;17813;0.000;0.000;2022-09-20T08:11:39;99793.41;;;15.66;61.15
31183;BME280;17813;0.000;0.000;2022-09-20T08:14:06;99788.31;;;15.74;60.76
31183;BME280;17813;0.000;0.000;2022-09-20T08:16:39;99784.28;;;15.80;60.28
31183;BME280;17813;0.000;0.000;2022-09-20T08:19:31;99791.22;;;15.71;58.86
31183;BME280;17813;0.000;0.000;2022-09-20T08:22:00;99801.44;;;15.53;59.02
31183;BME280;17813;0.000;0.000;2022-09-20T08:24:27;99802.59;;;15.27;60.20
31183;BME280;17813;0.000;0.000;2022-09-20T08:26:54;99801.78;;;15.02;60.95
31183;BME280;17813;0.000;0.000;2022-09-20T08:29:21;99803.94;;;14.73;62.55
31183;BME280;17813;0.000;0.000;2022-09-20T08:31:50;99804.22;;;14.58;63.67
31183;BME280;17813;0.000;0.000;2022-09-20T08:34:18;99796.78;;;14.74;63.86
31183;BME280;17813;0.000;0.000;2022-09-20T08:36:45;99802.47;;;15.28;62.05
31183;BME280;17813;0.000;0.000;2022-09-20T08:39:13;99804.25;;;15.52;61.28
31183;BME280;17813;0.000;0.000;2022-09-20T08:41:52;99801.44;;;15.77;61.62
31183;BME280;17813;0.000;0.000;2022-09-20T08:44:23;99794.88;;;16.03;60.08
31183;BME280;17813;0.000;0.000;2022-09-20T08:47:02;99792.91;;;16.50;59.83
31183;BME280;17813;0.000;0.000;2022-09-20T08:49:32;99796.25;;;18.01;57.12
31183;BME280;17813;0.000;0.000;2022-09-20T08:52:01;99788.63;;;19.44;53.88
31183;BME280;17813;0.000;0.000;2022-09-20T08:54:31;99785.19;;;20.18;50.29
31183;BME280;17813;0.000;0.000;2022-09-20T08:57:05;99784.22;;;20.74;48.35
31183;BME280;17813;0.000;0.000;2022-09-20T08:59:39;99785.97;;;20.65;48.49
31183;BME280;17813;0.000;0.000;2022-09-20T09:02:28;99785.78;;;19.65;47.87
31183;BME280;17813;0.000;0.000;2022-09-20T09:04:56;99799.81;;;19.01;49.68
31183;BME280;17813;0.000;0.000;2022-09-20T09:07:24;99809.38;;;18.25;51.27
31183;BME280;17813;0.000;0.000;2022-09-20T09:09:54;99810.88;;;17.87;52.64
31183;BME280;17813;0.000;0.000;2022-09-20T09:12:30;99812.59;;;17.67;52.91
31183;BME280;17813;0.000;0.000;2022-09-20T09:15:09;99805.09;;;17.29;52.95
31183;BME280;17813;0.000;0.000;2022-09-20T09:17:45;99812.34;;;17.59;53.50
31183;BME280;17813;0.000;0.000;2022-09-20T09:20:20;99799.97;;;19.00;51.66
31183;BME280;17813;0.000;0.000;2022-09-20T09:25:27;99792.84;;;21.66;46.49
31183;BME280;17813;0.000;0.000;2022-09-20T09:33:28;99791.66;;;23.21;40.19
31183;BME280;17813;0.000;0.000;2022-09-20T09:35:58;99796.22;;;22.54;41.91
31183;BME280;17813;0.000;0.000;2022-09-20T09:38:31;99795.06;;;21.45;42.86
31183;BME280;17813;0.000;0.000;2022-09-20T09:41:01;99803.69;;;20.68;45.23
31183;BME280;17813;0.000;0.000;2022-09-20T09:43:34;99813.50;;;19.85;46.52
31183;BME280;17813;0.000;0.000;2022-09-20T09:46:22;99816.25;;;19.37;46.44
31183;BME280;17813;0.000;0.000;2022-09-20T09:51:35;99817.44;;;18.25;48.88
31183;BME280;17813;0.000;0.000;2022-09-20T09:54:03;99817.94;;;17.67;50.24
31183;BME280;17813;0.000;0.000;2022-09-20T09:59:40;99819.47;;;16.96;51.37
31183;BME280;17813;0.000;0.000;2022-09-20T10:05:20;99817.41;;;17.94;52.10
31183;BME280;17813;0.000;0.000;2022-09-20T10:13:56;99822.72;;;18.46;48.84
31183;BME280;17813;0.000;0.000;2022-09-20T10:34:53;99804.63;;;20.76;45.99
31183;BME280;17813;0.000;0.000;2022-09-20T10:40:26;99805.66;;;22.92;40.67
31183;BME280;17813;0.000;0.000;2022-09-20T10:49:03;99813.97;;;20.54;43.35
31183;BME280;17813;0.000;0.000;2022-09-20T10:51:51;99811.53;;;19.77;44.12
31183;BME280;17813;0.000;0.000;2022-09-20T10:57:40;99817.84;;;20.05;45.57
31183;BME280;17813;0.000;0.000;2022-09-20T11:09:25;99817.59;;;20.63;45.50
31183;BME280;17813;0.000;0.000;2022-09-20T11:14:37;99808.22;;;20.95;41.55
31183;BME280;17813;0.000;0.000;2022-09-20T11:17:11;99812.97;;;20.55;43.08
31183;BME280;17813;0.000;0.000;2022-09-20T11:23:07;99809.38;;;20.65;43.95
31183;BME280;17813;0.000;0.000;2022-09-20T11:25:44;99802.88;;;20.85;41.95
31183;BME280;17813;0.000;0.000;2022-09-20T11:28:22;99805.47;;;20.77;43.16
31183;BME280;17813;0.000;0.000;2022-09-20T11:33:56;99805.53;;;20.67;42.51
31183;BME280;17813;0.000;0.000;2022-09-20T11:41:40;99810.97;;;19.74;44.23
31183;BME280;17813;0.000;0.000;2022-09-20T11:44:14;99798.69;;;19.33;44.95
31183;BME280;17813;0.000;0.000;2022-09-20T11:46:49;99799.25;;;19.46;45.45
31183;BME280;17813;0.000;0.000;2022-09-20T11:55:27;99802.84;;;18.58;46.30
31183;BME280;17813;0.000;0.000;2022-09-20T11:58:05;99803.91;;;18.36;47.62
31183;BME280;17813;0.000;0.000;2022-09-20T12:00:36;99804.72;;;18.67;48.17
31183;BME280;17813;0.000;0.000;2022-09-20T12:03:35;99806.63;;;19.24;46.66
31183;BME280;17813;0.000;0.000;2022-09-20T12:08:52;99790.53;;;19.90;45.59
31183;BME280;17813;0.000;0.000;2022-09-20T12:11:28;99800.84;;;20.05;43.10
31183;BME280;17813;0.000;0.000;2022-09-20T12:14:22;99799.69;;;19.61;41.75
31183;BME280;17813;0.000;0.000;2022-09-20T12:16:51;99796.56;;;19.36;43.17
31183;BME280;17813;0.000;0.000;2022-09-20T12:24:33;99789.50;;;19.35;44.61
31183;BME280;17813;0.000;0.000;2022-09-20T12:27:19;99788.34;;;19.57;45.23
31183;BME280;17813;0.000;0.000;2022-09-20T12:32:33;99788.59;;;20.20;44.04
31183;BME280;17813;0.000;0.000;2022-09-20T12:38:36;99791.19;;;19.07;44.11
31183;BME280;17813;0.000;0.000;2022-09-20T12:41:12;99795.72;;;18.97;44.17
31183;BME280;17813;0.000;0.000;2022-09-20T12:43:59;99793.03;;;18.87;43.96
31183;BME280;17813;0.000;0.000;2022-09-20T13:01:25;99785.94;;;18.77;43.22
31183;BME280;17813;0.000;0.000;2022-09-20T13:03:43;99795.03;;;18.45;43.96
31183;BME280;17813;0.000;0.000;2022-09-20T13:11:36;99782.38;;;18.67;45.43
31183;BME280;17813;0.000;0.000;2022-09-20T13:14:12;99779.88;;;18.94;44.20
31183;BME280;17813;0.000;0.000;2022-09-20T13:19:45;99787.09;;;19.22;42.94
31183;BME280;17813;0.000;0.000;2022-09-20T13:22:37;99785.91;;;18.67;42.61
31183;BME280;17813;0.000;0.000;2022-09-20T13:25:16;99788.53;;;18.48;43.24
31183;BME280;17813;0.000;0.000;2022-09-20T13:28:07;99800.34;;;18.26;43.77
31183;BME280;17813;0.000;0.000;2022-09-20T13:30:36;99803.94;;;18.15;44.15
31183;BME280;17813;0.000;0.000;2022-09-20T13:33:22;99809.63;;;17.91;44.37
31183;BME280;17813;0.000;0.000;2022-09-20T13:35:55;99808.13;;;17.78;45.53
31183;BME280;17813;0.000;0.000;2022-09-20T13:38:27;99801.56;;;17.91;46.15
31183;BME280;17813;0.000;0.000;2022-09-20T13:41:05;99805.22;;;17.90;45.35
31183;BME280;17813;0.000;0.000;2022-09-20T13:43:44;99804.78;;;17.85;45.40
31183;BME280;17813;0.000;0.000;2022-09-20T13:46:24;99802.31;;;17.73;45.60
31183;BME280;17813;0.000;0.000;2022-09-20T13:49:15;99814.25;;;17.48;45.19
31183;BME280;17813;0.000;0.000;2022-09-20T13:51:48;99815.88;;;17.39;45.82
31183;BME280;17813;0.000;0.000;2022-09-20T13:56:48;99825.44;;;17.00;45.75
31183;BME280;17813;0.000;0.000;2022-09-20T13:59:16;99818.66;;;16.85;46.82
31183;BME280;17813;0.000;0.000;2022-09-20T14:01:52;99826.22;;;16.80;47.52
31183;BME280;17813;0.000;0.000;2022-09-20T14:04:22;99829.91;;;16.67;48.65
31183;BME280;17813;0.000;0.000;2022-09-20T14:06:53;99833.78;;;16.63;49.23
31183;BME280;17813;0.000;0.000;2022-09-20T14:11:56;99833.31;;;16.47;49.04
31183;BME280;17813;0.000;0.000;2022-09-20T14:14:24;99842.69;;;16.42;49.10
31183;BME280;17813;0.000;0.000;2022-09-20T14:16:54;99835.25;;;16.23;50.23
31183;BME280;17813;0.000;0.000;2022-09-20T14:19:31;99838.44;;;16.28;50.02
31183;BME280;17813;0.000;0.000;2022-09-20T14:22:05;99836.72;;;16.16;50.15
31183;BME280;17813;0.000;0.000;2022-09-20T14:24:36;99844.88;;;16.03;50.68
31183;BME280;17813;0.000;0.000;2022-09-20T14:27:13;99840.50;;;16.02;50.59
31183;BME280;17813;0.000;0.000;2022-09-20T14:35:12;99844.72;;;15.82;51.37
31183;BME280;17813;0.000;0.000;2022-09-20T14:37:50;99851.28;;;15.89;51.79
31183;BME280;17813;0.000;0.000;2022-09-20T14:40:30;99856.03;;;15.97;52.03
31183;BME280;17813;0.000;0.000;2022-09-20T14:43:03;99865.41;;;16.02;50.89
31183;BME280;17813;0.000;0.000;2022-09-20T14:45:38;99858.00;;;16.28;50.62
31183;BME280;17813;0.000;0.000;2022-09-20T14:50:44;99850.44;;;16.56;49.81
31183;BME280;17813;0.000;0.000;2022-09-20T14:55:53;99852.53;;;16.41;48.93
31183;BME280;17813;0.000;0.000;2022-09-20T14:58:21;99856.69;;;16.34;49.52
31183;BME280;17813;0.000;0.000;2022-09-20T15:00:55;99854.38;;;16.29;49.40
31183;BME280;17813;0.000;0.000;2022-09-20T15:03:37;99863.13;;;16.31;49.47
31183;BME280;17813;0.000;0.000;2022-09-20T15:06:14;99853.28;;;16.32;49.88
31183;BME280;17813;0.000;0.000;2022-09-20T15:08:41;99857.53;;;16.46;49.84
31183;BME280;17813;0.000;0.000;2022-09-20T15:11:16;99861.31;;;16.65;49.45
31183;BME280;17813;0.000;0.000;2022-09-20T15:13:44;99868.69;;;16.84;49.45
31183;BME280;17813;0.000;0.000;2022-09-20T15:16:16;99862.59;;;16.93;49.03
31183;BME280;17813;0.000;0.000;2022-09-20T15:18:45;99856.34;;;17.04;48.22
31183;BME280;17813;0.000;0.000;2022-09-20T15:21:12;99854.66;;;17.03;48.13
31183;BME280;17813;0.000;0.000;2022-09-20T15:23:40;99862.94;;;17.00;47.93
31183;BME280;17813;0.000;0.000;2022-09-20T15:26:09;99863.31;;;16.95;48.07
31183;BME280;17813;0.000;0.000;2022-09-20T15:28:39;99861.66;;;16.72;48.64
31183;BME280;17813;0.000;0.000;2022-09-20T15:31:08;99873.31;;;16.82;48.50
31183;BME280;17813;0.000;0.000;2022-09-20T15:33:35;99858.72;;;16.75;48.75
31183;BME280;17813;0.000;0.000;2022-09-20T15:36:02;99864.81;;;16.77;48.25
31183;BME280;17813;0.000;0.000;2022-09-20T15:38:30;99865.66;;;16.55;48.32
31183;BME280;17813;0.000;0.000;2022-09-20T15:41:00;99865.44;;;16.47;48.65
31183;BME280;17813;0.000;0.000;2022-09-20T15:43:30;99868.72;;;16.39;49.21
31183;BME280;17813;0.000;0.000;2022-09-20T15:46:16;99870.06;;;16.45;48.75
31183;BME280;17813;0.000;0.000;2022-09-20T15:48:43;99868.09;;;16.36;49.07
31183;BME280;17813;0.000;0.000;2022-09-20T15:51:12;99877.13;;;16.35;49.10
31183;BME280;17813;0.000;0.000;2022-09-20T15:53:42;99878.56;;;16.28;49.16
31183;BME280;17813;0.000;0.000;2022-09-20T15:56:22;99877.34;;;16.10;49.59
31183;BME280;17813;0.000;0.000;2022-09-20T15:58:54;99886.69;;;16.04;49.67
31183;BME280;17813;0.000;0.000;2022-09-20T16:01:26;99893.38;;;15.98;49.65
31183;BME280;17813;0.000;0.000;2022-09-20T16:03:54;99893.25;;;15.89;49.90
31183;BME280;17813;0.000;0.000;2022-09-20T16:06:22;99892.84;;;15.82;50.48
31183;BME280;17813;0.000;0.000;2022-09-20T16:08:50;99889.91;;;15.74;50.14
31183;BME280;17813;0.000;0.000;2022-09-20T16:11:19;99891.13;;;15.70;50.20
31183;BME280;17813;0.000;0.000;2022-09-20T16:13:53;99898.41;;;15.68;50.07
31183;BME280;17813;0.000;0.000;2022-09-20T16:16:22;99897.16;;;15.61;50.34
31183;BME280;17813;0.000;0.000;2022-09-20T16:18:49;99894.78;;;15.56;50.19
31183;BME280;17813;0.000;0.000;2022-09-20T16:21:37;99902.09;;;15.30;50.90
31183;BME280;17813;0.000;0.000;2022-09-20T16:24:06;99900.38;;;15.29;51.06
31183;BME280;17813;0.000;0.000;2022-09-20T16:26:34;99909.19;;;15.19;51.49
31183;BME280;17813;0.000;0.000;2022-09-20T16:29:03;99916.56;;;15.15;51.42
31183;BME280;17813;0.000;0.000;2022-09-20T16:36:37;99922.03;;;14.77;53.58
31183;BME280;17813;0.000;0.000;2022-09-20T16:39:04;99928.38;;;14.63;54.18
31183;BME280;17813;0.000;0.000;2022-09-20T16:41:31;99930.19;;;14.50;54.10
31183;BME280;17813;0.000;0.000;2022-09-20T16:43:59;99933.28;;;14.31;54.40
31183;BME280;17813;0.000;0.000;2022-09-20T16:46:26;99937.66;;;14.20;54.97
31183;BME280;17813;0.000;0.000;2022-09-20T16:48:55;99940.84;;;14.12;55.22
31183;BME280;17813;0.000;0.000;2022-09-20T16:51:24;99939.97;;;13.99;56.20
31183;BME280;17813;0.000;0.000;2022-09-20T16:53:52;99950.41;;;13.89;56.15
31183;BME280;17813;0.000;0.000;2022-09-20T16:56:25;99950.69;;;13.72;56.46
31183;BME280;17813;0.000;0.000;2022-09-20T16:58:53;99964.66;;;13.63;56.80
31183;BME280;17813;0.000;0.000;2022-09-20T17:01:21;99960.56;;;13.57;57.11
31183;BME280;17813;0.000;0.000;2022-09-20T17:03:49;99960.44;;;13.46;58.09
31183;BME280;17813;0.000;0.000;2022-09-20T17:06:16;99966.09;;;13.27;59.00
31183;BME280;17813;0.000;0.000;2022-09-20T17:08:45;99975.81;;;13.14;59.28
31183;BME280;17813;0.000;0.000;2022-09-20T17:11:17;99978.22;;;13.04;59.66
31183;BME280;17813;0.000;0.000;2022-09-20T17:13:47;99974.50;;;12.93;60.17
31183;BME280;17813;0.000;0.000;2022-09-20T17:16:22;99979.84;;;12.78;60.46
31183;BME280;17813;0.000;0.000;2022-09-20T17:19:01;99993.34;;;12.61;59.66
31183;BME280;17813;0.000;0.000;2022-09-20T17:21:31;99990.78;;;12.60;60.01
31183;BME280;17813;0.000;0.000;2022-09-20T17:23:59;99989.53;;;12.51;59.88
31183;BME280;17813;0.000;0.000;2022-09-20T17:26:30;99994.25;;;12.32;61.96
31183;BME280;17813;0.000;0.000;2022-09-20T17:29:00;99997.47;;;12.22;61.26
31183;BME280;17813;0.000;0.000;2022-09-20T17:31:33;100004.66;;;12.06;61.74
31183;BME280;17813;0.000;0.000;2022-09-20T17:34:02;100008.91;;;11.95;62.22
31183;BME280;17813;0.000;0.000;2022-09-20T17:36:32;100008.16;;;11.77;64.12
31183;BME280;17813;0.000;0.000;2022-09-20T17:39:01;100006.88;;;11.68;64.25
31183;BME280;17813;0.000;0.000;2022-09-20T17:41:29;100015.03;;;11.65;63.66
31183;BME280;17813;0.000;0.000;2022-09-20T17:44:00;100010.31;;;11.54;64.40
31183;BME280;17813;0.000;0.000;2022-09-20T17:46:45;100011.53;;;11.49;63.99
31183;BME280;17813;0.000;0.000;2022-09-20T17:49:21;100011.88;;;11.43;64.42
31183;BME280;17813;0.000;0.000;2022-09-20T17:51:50;100009.41;;;11.40;64.52
31183;BME280;17813;0.000;0.000;2022-09-20T17:54:18;100021.22;;;11.34;64.14
31183;BME280;17813;0.000;0.000;2022-09-20T17:56:48;100020.38;;;11.18;65.81
31183;BME280;17813;0.000;0.000;2022-09-20T17:59:17;100021.56;;;11.12;65.52
31183;BME280;17813;0.000;0.000;2022-09-20T18:01:46;100018.41;;;11.06;65.68
31183;BME280;17813;0.000;0.000;2022-09-20T18:04:14;100031.84;;;11.03;65.93
31183;BME280;17813;0.000;0.000;2022-09-20T18:06:45;100028.50;;;10.99;66.17
31183;BME280;17813;0.000;0.000;2022-09-20T18:09:17;100044.41;;;10.99;65.86
31183;BME280;17813;0.000;0.000;2022-09-20T18:11:47;100046.28;;;10.97;65.68
31183;BME280;17813;0.000;0.000;2022-09-20T18:14:23;100037.66;;;10.93;65.88
31183;BME280;17813;0.000;0.000;2022-09-20T18:16:52;100042.44;;;10.87;66.35
31183;BME280;17813;0.000;0.000;2022-09-20T18:19:19;100041.91;;;10.80;66.27
31183;BME280;17813;0.000;0.000;2022-09-20T18:21:48;100052.16;;;10.71;67.50
31183;BME280;17813;0.000;0.000;2022-09-20T18:24:15;100057.16;;;10.59;67.33
31183;BME280;17813;0.000;0.000;2022-09-20T18:26:42;100058.56;;;10.49;68.17
31183;BME280;17813;0.000;0.000;2022-09-20T18:29:12;100065.34;;;10.38;68.11
31183;BME280;17813;0.000;0.000;2022-09-20T18:31:45;100061.28;;;10.30;69.01
31183;BME280;17813;0.000;0.000;2022-09-20T18:34:18;100070.06;;;10.14;70.68
31183;BME280;17813;0.000;0.000;2022-09-20T18:36:48;100075.06;;;10.03;71.09
31183;BME280;17813;0.000;0.000;2022-09-20T18:39:22;100070.13;;;9.95;70.50
31183;BME280;17813;0.000;0.000;2022-09-20T18:41:50;100082.59;;;9.93;70.09